createdAt,value
2023-05-05T00:02:26.900Z,12.07
2023-05-05T00:04:54.647Z,12.07
2023-05-05T00:07:22.258Z,12.07
2023-05-05T00:09:49.854Z,12.06
2023-05-05T00:12:17.500Z,12.04
2023-05-05T00:14:45.159Z,12.04
2023-05-05T00:17:12.795Z,12.02
2023-05-05T00:19:40.770Z,12.00
2023-05-05T00:22:08.389Z,11.97
2023-05-05T00:24:36.129Z,11.94
2023-05-05T00:27:04.176Z,11.92
2023-05-05T00:29:31.868Z,11.90
2023-05-05T00:31:59.599Z,11.88
2023-05-05T00:34:27.236Z,11.86
2023-05-05T00:36:54.878Z,11.85
2023-05-05T00:39:22.527Z,11.84
2023-05-05T00:41:50.772Z,11.83
2023-05-05T00:44:18.474Z,11.83
2023-05-05T00:46:46.220Z,11.81
2023-05-05T00:49:13.975Z,11.80
2023-05-05T00:51:41.622Z,11.78
2023-05-05T00:54:09.238Z,11.77
2023-05-05T00:56:36.873Z,11.79
2023-05-05T00:59:04.511Z,11.81
2023-05-05T01:01:32.822Z,11.82
2023-05-05T01:04:00.494Z,11.80
2023-05-05T01:06:28.133Z,11.78
2023-05-05T01:08:56.491Z,11.75
2023-05-05T01:11:24.127Z,11.72
2023-05-05T01:13:51.734Z,11.68
2023-05-05T01:16:19.356Z,11.64
2023-05-05T01:18:47.043Z,11.63
2023-05-05T01:21:14.768Z,11.60
2023-05-05T01:23:42.522Z,11.57
2023-05-05T01:26:10.208Z,11.56
2023-05-05T01:28:37.842Z,11.57
2023-05-05T01:31:05.965Z,11.56
2023-05-05T01:33:33.579Z,12.09
2023-05-05T01:36:01.204Z,14.88
2023-05-05T01:38:29.434Z,16.65
2023-05-05T01:40:57.400Z,15.88
2023-05-05T01:43:25.055Z,14.88
2023-05-05T01:45:52.763Z,14.20
2023-05-05T01:48:20.358Z,13.75
2023-05-05T01:50:48.044Z,13.42
2023-05-05T01:53:17.667Z,13.14
2023-05-05T01:55:45.301Z,12.91
2023-05-05T01:58:13.597Z,12.70
2023-05-05T02:00:41.226Z,12.49
2023-05-05T02:03:08.961Z,12.30
2023-05-05T02:05:36.856Z,12.13
2023-05-05T02:08:04.517Z,11.97
2023-05-05T02:10:32.158Z,11.83
2023-05-05T02:12:59.856Z,11.69
2023-05-05T02:15:27.478Z,11.55
2023-05-05T02:17:55.144Z,11.44
2023-05-05T02:20:22.804Z,11.32
2023-05-05T02:22:50.414Z,11.21
2023-05-05T02:25:18.126Z,11.11
2023-05-05T02:27:45.822Z,11.48
2023-05-05T02:30:13.473Z,14.11
2023-05-05T02:32:41.202Z,15.95
2023-05-05T02:35:08.997Z,15.13
2023-05-05T02:37:36.633Z,14.08
2023-05-05T02:40:04.960Z,13.35
2023-05-05T02:42:32.775Z,12.86
2023-05-05T02:45:00.485Z,12.50
2023-05-05T02:47:28.149Z,12.22
2023-05-05T02:49:55.901Z,11.97
2023-05-05T02:52:23.548Z,11.75
2023-05-05T02:54:51.282Z,11.55
2023-05-05T02:57:18.891Z,11.36
2023-05-05T02:59:48.845Z,11.19
2023-05-05T03:02:16.448Z,11.03
2023-05-05T03:04:44.064Z,10.90
2023-05-05T03:07:12.030Z,10.77
2023-05-05T03:09:39.648Z,10.65
2023-05-05T03:12:07.325Z,10.95
2023-05-05T03:14:35.116Z,13.50
2023-05-05T03:17:02.759Z,15.40
2023-05-05T03:19:30.400Z,14.61
2023-05-05T03:21:58.308Z,13.52
2023-05-05T03:24:25.929Z,12.75
2023-05-05T03:26:53.913Z,12.23
2023-05-05T03:29:21.565Z,11.86
2023-05-05T03:31:49.245Z,11.57
2023-05-05T03:34:16.992Z,11.34
2023-05-05T03:36:44.624Z,11.16
2023-05-05T03:39:12.373Z,11.00
2023-05-05T03:41:39.987Z,10.87
2023-05-05T03:44:07.617Z,10.74
2023-05-05T03:46:36.139Z,11.06
2023-05-05T03:49:03.755Z,13.65
2023-05-05T03:51:31.791Z,15.50
2023-05-05T03:53:59.445Z,14.73
2023-05-05T03:56:27.060Z,13.68
2023-05-05T03:58:54.697Z,12.98
2023-05-05T04:01:23.446Z,12.51
2023-05-05T04:03:51.202Z,12.17
2023-05-05T04:06:18.992Z,11.89
2023-05-05T04:08:46.767Z,11.66
2023-05-05T04:11:14.409Z,11.45
2023-05-05T04:13:42.058Z,11.27
2023-05-05T04:16:09.698Z,11.11
2023-05-05T04:18:37.382Z,11.42
2023-05-05T04:21:04.995Z,13.97
2023-05-05T04:23:32.618Z,15.75
2023-05-05T04:26:00.236Z,15.00
2023-05-05T04:28:27.883Z,13.96
2023-05-05T04:30:55.635Z,13.27
2023-05-05T04:33:23.363Z,12.83
2023-05-05T04:35:51.012Z,12.52
2023-05-05T04:38:20.792Z,12.29
2023-05-05T04:40:48.477Z,12.10
2023-05-05T04:43:16.121Z,11.95
2023-05-05T04:45:43.749Z,12.31
2023-05-05T04:48:11.341Z,14.90
2023-05-05T04:50:38.939Z,16.50
2023-05-05T04:53:06.559Z,15.70
2023-05-05T04:55:34.169Z,14.74
2023-05-05T04:58:01.884Z,14.11
2023-05-05T05:00:29.517Z,13.69
2023-05-05T05:02:57.258Z,13.36
2023-05-05T05:05:24.951Z,13.08
2023-05-05T05:07:52.622Z,12.85
2023-05-05T05:10:20.240Z,12.66
2023-05-05T05:12:47.974Z,12.52
2023-05-05T05:15:15.981Z,12.42
2023-05-05T05:17:43.636Z,12.33
2023-05-05T05:20:11.456Z,12.27
2023-05-05T05:22:39.371Z,12.22
2023-05-05T05:25:07.017Z,12.73
2023-05-05T05:27:34.627Z,15.45
2023-05-05T05:30:03.363Z,17.13
2023-05-05T05:32:31.297Z,16.40
2023-05-05T05:34:58.914Z,15.46
2023-05-05T05:37:26.524Z,14.84
2023-05-05T05:39:54.171Z,14.47
2023-05-05T05:42:21.828Z,14.22
2023-05-05T05:44:49.470Z,14.02
2023-05-05T05:47:17.160Z,13.86
2023-05-05T05:49:44.804Z,13.72
2023-05-05T05:52:12.521Z,13.60
2023-05-05T05:54:40.148Z,13.50
2023-05-05T05:57:07.941Z,13.40
2023-05-05T05:59:35.683Z,13.31
2023-05-05T06:02:04.702Z,13.24
2023-05-05T06:04:32.415Z,13.16
2023-05-05T06:07:00.039Z,13.11
2023-05-05T06:09:27.686Z,13.60
2023-05-05T06:11:55.463Z,16.22
2023-05-05T06:14:23.139Z,17.96
2023-05-05T06:16:52.430Z,17.31
2023-05-05T06:19:20.102Z,16.35
2023-05-05T06:21:47.781Z,15.72
2023-05-05T06:24:15.420Z,15.32
2023-05-05T06:29:31.433Z,14.77
2023-05-05T06:32:01.215Z,14.58
2023-05-05T06:34:28.895Z,14.41
2023-05-05T06:36:56.504Z,14.27
2023-05-05T06:39:24.143Z,14.15
2023-05-05T06:41:52.082Z,14.06
2023-05-05T06:44:19.770Z,13.99
2023-05-05T06:46:47.526Z,13.93
2023-05-05T06:49:15.233Z,13.88
2023-05-05T06:51:43.092Z,13.84
2023-05-05T06:54:10.854Z,13.83
2023-05-05T06:56:38.517Z,13.82
2023-05-05T06:59:06.436Z,13.82
2023-05-05T07:01:34.061Z,13.82
2023-05-05T07:04:01.934Z,13.83
2023-05-05T07:06:29.636Z,13.83
2023-05-05T07:08:58.049Z,13.83
2023-05-05T07:11:25.827Z,13.85
2023-05-05T07:13:53.459Z,13.86
2023-05-05T07:16:21.189Z,13.88
2023-05-05T07:18:48.992Z,13.91
2023-05-05T07:21:16.860Z,13.94
2023-05-05T07:23:46.665Z,13.96
2023-05-05T07:26:14.443Z,13.99
2023-05-05T07:28:43.250Z,14.04
2023-05-05T07:31:10.944Z,14.08
2023-05-05T07:33:38.728Z,14.13
2023-05-05T07:36:06.739Z,14.18
2023-05-05T07:38:34.694Z,14.23
2023-05-05T07:41:02.311Z,14.28
2023-05-05T07:43:29.964Z,14.32
2023-05-05T07:45:57.607Z,14.37
2023-05-05T07:48:25.581Z,14.41
2023-05-05T07:50:53.229Z,14.47
2023-05-05T07:53:21.132Z,14.52
2023-05-05T07:55:48.796Z,14.57
2023-05-05T07:58:16.432Z,14.62
2023-05-05T08:00:44.051Z,14.66
2023-05-05T08:03:12.262Z,14.71
2023-05-05T08:05:40.846Z,14.77
2023-05-05T08:08:08.541Z,14.82
2023-05-05T08:10:36.109Z,14.87
2023-05-05T08:13:03.845Z,14.91
2023-05-05T08:15:31.475Z,14.95
2023-05-05T08:17:59.198Z,14.97
2023-05-05T08:20:26.884Z,14.98
2023-05-05T08:22:54.682Z,15.00
2023-05-05T08:25:22.395Z,15.04
2023-05-05T08:27:51.404Z,15.09
2023-05-05T08:30:21.582Z,15.15
2023-05-05T08:32:49.502Z,15.21
2023-05-05T08:35:17.245Z,15.28
2023-05-05T08:37:45.018Z,15.33
2023-05-05T08:40:14.384Z,15.40
2023-05-05T08:42:42.353Z,15.46
2023-05-05T08:45:10.650Z,15.52
2023-05-05T08:47:39.120Z,15.57
2023-05-05T08:50:06.972Z,15.61
2023-05-05T08:52:34.719Z,15.65
2023-05-05T08:55:02.715Z,15.71
2023-05-05T08:57:30.336Z,15.76
2023-05-05T08:59:58.988Z,15.80
2023-05-05T09:02:28.616Z,15.85
2023-05-05T09:04:56.334Z,15.90
2023-05-05T09:07:23.932Z,15.96
2023-05-05T09:09:51.590Z,16.03
2023-05-05T09:12:19.197Z,16.11
2023-05-05T09:17:36.223Z,16.29
2023-05-05T09:20:07.498Z,16.37
2023-05-05T09:22:35.193Z,16.45
2023-05-05T09:25:03.095Z,16.54
2023-05-05T09:27:30.765Z,16.63
2023-05-05T09:29:58.478Z,16.71
2023-05-05T09:32:27.631Z,16.80
2023-05-05T09:34:56.258Z,16.89
2023-05-05T09:37:23.878Z,16.96
2023-05-05T09:39:51.509Z,17.03
2023-05-05T09:42:19.713Z,17.12
2023-05-05T09:44:47.326Z,17.22
2023-05-05T09:47:28.479Z,17.32
2023-05-05T09:49:56.564Z,17.42
2023-05-05T09:52:24.181Z,17.51
2023-05-05T09:54:51.809Z,17.62
2023-05-05T09:57:19.461Z,17.73
2023-05-05T09:59:47.072Z,17.83
2023-05-05T10:02:14.696Z,17.93
2023-05-05T10:04:42.391Z,18.02
2023-05-05T10:07:10.075Z,18.13
2023-05-05T10:09:37.685Z,18.22
2023-05-05T10:12:05.737Z,18.30
2023-05-05T10:14:33.349Z,18.39
2023-05-05T10:17:01.013Z,18.48
2023-05-05T10:19:28.711Z,18.59
2023-05-05T10:21:56.356Z,18.69
2023-05-05T10:24:23.987Z,18.79
2023-05-05T10:26:53.997Z,18.87
2023-05-05T10:29:21.654Z,18.96
2023-05-05T10:31:49.370Z,19.02
2023-05-05T10:34:17.111Z,19.08
2023-05-05T10:36:45.195Z,19.17
2023-05-05T10:39:12.897Z,19.27
2023-05-05T10:41:41.015Z,19.36
2023-05-05T10:44:10.908Z,19.45
2023-05-05T10:46:38.663Z,19.52
2023-05-05T10:49:06.394Z,19.62
2023-05-05T10:51:39.882Z,19.71
2023-05-05T10:54:10.487Z,19.79
2023-05-05T10:56:38.270Z,19.86
2023-05-05T10:59:06.097Z,19.94
2023-05-05T11:01:33.982Z,20.03
2023-05-05T11:04:01.899Z,20.12
2023-05-05T11:06:30.883Z,20.21
2023-05-05T11:08:58.519Z,20.29
2023-05-05T11:11:26.150Z,20.35
2023-05-05T11:13:53.779Z,20.42
2023-05-05T11:16:21.442Z,20.45
2023-05-05T11:18:49.084Z,20.48
2023-05-05T11:21:16.831Z,20.54
2023-05-05T11:23:44.508Z,20.60
2023-05-05T11:26:13.172Z,20.67
2023-05-05T11:28:41.246Z,20.74
2023-05-05T11:31:08.859Z,20.79
2023-05-05T11:33:37.184Z,20.87
2023-05-05T11:36:06.755Z,20.93
2023-05-05T11:38:34.980Z,20.99
2023-05-05T11:41:02.594Z,20.99
2023-05-05T11:43:30.211Z,20.99
2023-05-05T11:45:57.896Z,21.04
2023-05-05T11:48:27.326Z,21.10
2023-05-05T11:50:55.075Z,21.17
2023-05-05T11:53:22.691Z,21.24
2023-05-05T11:55:50.335Z,21.30
2023-05-05T11:58:17.958Z,21.31
2023-05-05T12:00:45.773Z,21.31
2023-05-05T12:03:13.536Z,21.34
2023-05-05T12:05:41.342Z,21.38
2023-05-05T12:08:09.878Z,21.43
2023-05-05T12:10:37.949Z,21.49
2023-05-05T12:13:05.703Z,21.56
2023-05-05T12:15:33.396Z,21.59
2023-05-05T12:18:03.096Z,21.59
2023-05-05T12:20:32.489Z,21.53
2023-05-05T12:23:00.133Z,21.52
2023-05-05T12:25:27.781Z,21.52
2023-05-05T12:27:55.662Z,21.54
2023-05-05T12:30:23.457Z,21.58
2023-05-05T12:32:51.174Z,21.64
2023-05-05T12:35:19.996Z,21.70
2023-05-05T12:37:47.615Z,21.73
2023-05-05T12:40:15.248Z,21.77
2023-05-05T12:42:43.651Z,21.81
2023-05-05T12:45:12.813Z,21.85
2023-05-05T12:47:44.182Z,21.90
2023-05-05T12:50:11.883Z,21.94
2023-05-05T12:52:39.540Z,21.97
2023-05-05T12:55:07.410Z,22.02
2023-05-05T12:57:35.407Z,22.06
2023-05-05T13:00:03.780Z,22.11
2023-05-05T13:02:31.449Z,22.15
2023-05-05T13:04:59.218Z,22.16
2023-05-05T13:07:26.834Z,22.15
2023-05-05T13:09:54.469Z,22.08
2023-05-05T13:12:23.302Z,22.02
2023-05-05T13:14:52.642Z,22.00
2023-05-05T13:17:20.302Z,22.05
2023-05-05T13:19:47.953Z,22.08
2023-05-05T13:22:15.620Z,22.12
2023-05-05T13:24:51.913Z,22.15
2023-05-05T13:27:20.732Z,22.18
2023-05-05T13:29:48.689Z,22.20
2023-05-05T13:32:16.361Z,22.23
2023-05-05T13:34:44.373Z,22.23
2023-05-05T13:37:12.009Z,22.20
2023-05-05T13:39:39.667Z,22.19
2023-05-05T13:42:07.339Z,22.14
2023-05-05T13:44:35.879Z,22.12
2023-05-05T13:47:03.856Z,22.13
2023-05-05T13:49:31.568Z,22.14
2023-05-05T13:51:59.529Z,22.18
2023-05-05T13:54:27.182Z,22.20
2023-05-05T13:56:54.820Z,22.22
2023-05-05T13:59:22.471Z,22.19
2023-05-05T14:01:50.142Z,22.14
2023-05-05T14:04:17.822Z,22.09
2023-05-05T14:06:45.612Z,22.06
2023-05-05T14:09:13.705Z,22.04
2023-05-05T14:11:41.404Z,22.03
2023-05-05T14:14:09.030Z,22.04
2023-05-05T14:16:36.715Z,22.05
2023-05-05T14:19:04.378Z,22.07
2023-05-05T14:21:32.812Z,22.08
2023-05-05T14:24:00.523Z,22.10
2023-05-05T14:26:28.188Z,22.11
2023-05-05T14:28:55.942Z,22.13
2023-05-05T14:31:23.663Z,22.14
2023-05-05T14:33:51.302Z,22.16
2023-05-05T14:36:18.987Z,22.15
2023-05-05T14:38:46.709Z,22.13
2023-05-05T14:41:14.374Z,22.09
2023-05-05T14:43:42.099Z,22.06
2023-05-05T14:46:09.743Z,22.03
2023-05-05T14:48:37.797Z,21.98
2023-05-05T14:51:05.461Z,21.94
2023-05-05T14:53:33.157Z,21.90
2023-05-05T14:56:00.811Z,21.85
2023-05-05T14:58:28.469Z,21.80
2023-05-05T15:00:56.148Z,21.76
2023-05-05T15:03:23.864Z,21.74
2023-05-05T15:05:51.533Z,21.72
2023-05-05T15:08:19.407Z,21.71
2023-05-05T15:10:47.117Z,21.69
2023-05-05T15:13:15.030Z,21.70
2023-05-05T15:15:43.084Z,21.71
2023-05-05T15:18:10.739Z,21.71
2023-05-05T15:20:38.366Z,21.72
2023-05-05T15:23:06.016Z,21.73
2023-05-05T15:25:33.665Z,21.74
2023-05-05T15:28:01.317Z,21.74
2023-05-05T15:30:28.958Z,21.76
2023-05-05T15:32:56.693Z,21.76
2023-05-05T15:35:25.711Z,21.76
2023-05-05T15:37:53.329Z,21.77
2023-05-05T15:40:20.954Z,21.80
2023-05-05T15:42:49.965Z,21.82
2023-05-05T15:45:17.630Z,21.86
2023-05-05T15:47:46.233Z,21.93
2023-05-05T15:50:14.303Z,22.02
2023-05-05T15:52:42.007Z,22.11
2023-05-05T15:55:09.751Z,22.17
2023-05-05T15:57:39.913Z,22.20
2023-05-05T16:00:08.098Z,22.22
2023-05-05T16:02:38.385Z,22.26
2023-05-05T16:05:06.414Z,22.33
2023-05-05T16:07:34.253Z,22.49
2023-05-05T16:10:01.973Z,22.79
2023-05-05T16:12:29.712Z,23.10
2023-05-05T16:14:57.472Z,23.22
2023-05-05T16:17:25.186Z,23.22
2023-05-05T16:19:52.901Z,23.17
2023-05-05T16:22:21.239Z,23.11
2023-05-05T16:24:48.928Z,23.01
2023-05-05T16:27:16.616Z,22.88
2023-05-05T16:29:44.305Z,22.74
2023-05-05T16:32:11.941Z,22.58
2023-05-05T16:34:39.649Z,22.44
2023-05-05T16:37:07.267Z,22.29
2023-05-05T16:39:40.261Z,22.17
2023-05-05T16:42:08.156Z,22.07
2023-05-05T16:44:36.057Z,22.00
2023-05-05T16:47:03.754Z,21.89
2023-05-05T16:49:31.382Z,21.74
2023-05-05T16:51:59.154Z,21.62
2023-05-05T16:54:26.775Z,21.51
2023-05-05T16:56:55.068Z,21.39
2023-05-05T16:59:22.712Z,21.27
2023-05-05T17:01:50.387Z,21.14
2023-05-05T17:04:18.061Z,21.01
2023-05-05T17:06:46.170Z,20.91
2023-05-05T17:09:13.787Z,20.80
2023-05-05T17:11:42.023Z,20.68
2023-05-05T17:14:09.938Z,20.56
2023-05-05T17:16:37.885Z,20.45
2023-05-05T17:19:05.630Z,20.34
2023-05-05T17:21:33.240Z,20.24
2023-05-05T17:24:01.594Z,20.15
2023-05-05T17:26:29.201Z,20.04
2023-05-05T17:28:56.826Z,19.94
2023-05-05T17:31:24.503Z,19.85
2023-05-05T17:33:52.164Z,19.75
2023-05-05T17:36:19.783Z,19.65
2023-05-05T17:38:47.386Z,19.55
2023-05-05T17:41:15.056Z,19.46
2023-05-05T17:43:42.741Z,19.37
2023-05-05T17:46:10.475Z,19.29
2023-05-05T17:48:38.256Z,19.20
2023-05-05T17:51:05.924Z,19.12
2023-05-05T17:53:33.688Z,19.03
2023-05-05T17:56:01.345Z,18.94
2023-05-05T17:58:28.947Z,18.85
2023-05-05T18:00:56.696Z,18.76
2023-05-05T18:03:24.667Z,18.65
2023-05-05T18:05:53.052Z,18.55
2023-05-05T18:08:20.749Z,18.45
2023-05-05T18:10:48.416Z,18.35
2023-05-05T18:13:16.058Z,18.24
2023-05-05T18:15:43.744Z,18.13
2023-05-05T18:18:11.452Z,18.03
2023-05-05T18:20:39.152Z,17.95
2023-05-05T18:23:06.811Z,17.85
2023-05-05T18:25:34.436Z,17.77
2023-05-05T18:28:02.049Z,17.69
2023-05-05T18:30:29.672Z,17.60
2023-05-05T18:32:57.386Z,17.53
2023-05-05T18:35:24.988Z,17.46
2023-05-05T18:37:54.569Z,17.39
2023-05-05T18:40:22.221Z,17.33
2023-05-05T18:42:49.924Z,17.27
2023-05-05T18:45:17.624Z,17.21
2023-05-05T18:47:45.383Z,17.16
2023-05-05T18:50:13.044Z,17.10
2023-05-05T18:52:40.694Z,17.05
2023-05-05T18:55:08.509Z,16.99
2023-05-05T18:57:36.357Z,16.94
2023-05-05T19:00:03.988Z,16.88
2023-05-05T19:02:31.895Z,16.83
2023-05-05T19:04:59.650Z,16.78
2023-05-05T19:07:35.447Z,16.72
2023-05-05T19:10:03.668Z,16.67
2023-05-05T19:12:31.329Z,16.62
2023-05-05T19:14:59.094Z,16.57
2023-05-05T19:17:26.741Z,16.52
2023-05-05T19:19:54.413Z,16.46
2023-05-05T19:22:24.213Z,16.40
2023-05-05T19:24:51.851Z,16.33
2023-05-05T19:27:19.470Z,16.27
2023-05-05T19:29:52.238Z,16.20
2023-05-05T19:32:20.664Z,16.15
2023-05-05T19:34:48.796Z,16.11
2023-05-05T19:37:16.470Z,16.06
2023-05-05T19:39:45.858Z,16.01
2023-05-05T19:42:13.573Z,15.95
2023-05-05T19:44:41.215Z,15.89
2023-05-05T19:47:09.066Z,15.84
2023-05-05T19:49:38.584Z,15.78
2023-05-05T19:52:06.295Z,15.72
2023-05-05T19:54:33.933Z,15.66
2023-05-05T19:57:03.690Z,15.61
2023-05-05T19:59:31.441Z,15.57
2023-05-05T20:01:59.489Z,15.53
2023-05-05T20:04:27.324Z,15.49
2023-05-05T20:06:55.011Z,15.47
2023-05-05T20:09:22.651Z,15.44
2023-05-05T20:11:50.221Z,15.41
2023-05-05T20:14:17.886Z,15.39
2023-05-05T20:16:45.508Z,15.35
2023-05-05T20:19:13.250Z,15.33
2023-05-05T20:21:41.323Z,15.30
2023-05-05T20:24:09.063Z,15.26
2023-05-05T20:26:36.812Z,15.23
2023-05-05T20:29:04.449Z,15.20
2023-05-05T20:31:32.098Z,15.16
2023-05-05T20:33:59.822Z,15.15
2023-05-05T20:36:27.785Z,15.12
2023-05-05T20:38:55.480Z,15.09
2023-05-05T20:41:23.094Z,15.05
2023-05-05T20:43:50.905Z,15.02
2023-05-05T20:46:18.586Z,14.99
2023-05-05T20:48:46.510Z,14.95
2023-05-05T20:51:14.148Z,14.91
2023-05-05T20:53:41.828Z,14.87
2023-05-05T20:56:09.497Z,14.83
2023-05-05T20:58:37.106Z,14.78
2023-05-05T21:01:04.781Z,14.74
2023-05-05T21:03:32.503Z,14.71
2023-05-05T21:06:00.298Z,14.68
2023-05-05T21:08:28.005Z,14.66
2023-05-05T21:10:55.644Z,14.64
2023-05-05T21:13:23.351Z,14.61
2023-05-05T21:15:51.011Z,14.59
2023-05-05T21:18:18.628Z,14.56
2023-05-05T21:20:46.260Z,14.52
2023-05-05T21:23:13.910Z,14.47
2023-05-05T21:25:41.561Z,14.43
2023-05-05T21:28:09.171Z,14.40
2023-05-05T21:30:38.170Z,14.36
2023-05-05T21:33:05.928Z,14.33
2023-05-05T21:35:34.080Z,14.30
2023-05-05T21:38:02.308Z,14.29
2023-05-05T21:40:29.967Z,14.26
2023-05-05T21:42:57.612Z,14.23
2023-05-05T21:45:25.252Z,14.20
2023-05-05T21:47:52.996Z,14.16
2023-05-05T21:50:20.739Z,14.12
2023-05-05T21:52:48.354Z,14.08
2023-05-05T21:55:15.978Z,14.05
2023-05-05T21:57:43.582Z,14.03
2023-05-05T22:00:16.769Z,14.02
2023-05-05T22:02:44.712Z,14.00
2023-05-05T22:05:12.470Z,13.99
2023-05-05T22:07:40.898Z,13.96
2023-05-05T22:10:08.758Z,13.93
2023-05-05T22:12:36.533Z,13.90
2023-05-05T22:15:04.186Z,13.87
2023-05-05T22:17:31.868Z,13.84
2023-05-05T22:19:59.537Z,13.80
2023-05-05T22:22:27.162Z,13.76
2023-05-05T22:24:54.762Z,13.72
2023-05-05T22:27:22.459Z,13.68
2023-05-05T22:29:50.062Z,13.64
2023-05-05T22:32:17.668Z,13.61
2023-05-05T22:34:45.277Z,13.57
2023-05-05T22:37:12.993Z,13.53
2023-05-05T22:39:40.609Z,13.50
2023-05-05T22:42:08.351Z,13.45
2023-05-05T22:44:36.002Z,13.43
2023-05-05T22:47:03.734Z,13.39
2023-05-05T22:49:31.817Z,13.35
2023-05-05T22:51:59.635Z,13.32
2023-05-05T22:54:27.268Z,13.28
2023-05-05T22:56:55.161Z,13.23
2023-05-05T22:59:22.815Z,13.20
2023-05-05T23:01:50.449Z,13.15
2023-05-05T23:04:18.118Z,13.11
2023-05-05T23:06:46.317Z,13.06
2023-05-05T23:09:13.984Z,13.01
2023-05-05T23:11:41.602Z,12.96
2023-05-05T23:14:09.250Z,12.91
2023-05-05T23:16:36.888Z,12.86
2023-05-05T23:19:04.558Z,12.82
2023-05-05T23:21:34.052Z,12.78
2023-05-05T23:24:06.729Z,12.74
2023-05-05T23:26:34.792Z,12.71
2023-05-05T23:29:02.424Z,12.68
2023-05-05T23:31:30.039Z,12.64
2023-05-05T23:33:57.651Z,12.61
2023-05-05T23:36:25.274Z,12.57
2023-05-05T23:38:52.899Z,12.53
2023-05-05T23:41:20.561Z,12.49
2023-05-05T23:43:48.157Z,12.46
2023-05-05T23:46:15.859Z,12.43
2023-05-05T23:48:43.505Z,12.39
2023-05-05T23:51:11.240Z,12.35
2023-05-05T23:53:38.869Z,12.30
2023-05-05T23:56:06.500Z,12.28
2023-05-05T23:58:34.146Z,12.25
